Time;durP1;ratioP1;P1;durP2;ratioP2;P2;SDS_P1;SDS_P2;PMS_P1;PMS_P2;Temp;Humidity;BMP_temperature;BMP_pressure;BME280_temperature;BME280_humidity;BME280_pressure;Samples;Min_cycle;Max_cycle;Signal;HPM_P1;HPM_P2
2021/01/08 00:00:49;;;;;;;4.28;2.70;;;;;;;17.08;48.78;101326.59;6249273;22;20026;-77
2021/01/08 00:03:16;;;;;;;5.03;2.78;;;;;;;17.09;48.62;101326.59;6255008;22;20011;-76
2021/01/08 00:05:41;;;;;;;4.55;2.50;;;;;;;17.08;48.53;101327.47;6253979;22;20442;-76
2021/01/08 00:08:07;;;;;;;4.88;2.20;;;;;;;17.08;48.79;101322.25;6257420;22;20015;-76
2021/01/08 00:10:32;;;;;;;4.75;2.50;;;;;;;17.09;48.54;101333.53;6228980;22;20015;-77
2021/01/08 00:12:57;;;;;;;5.22;2.40;;;;;;;17.08;48.66;101335.25;6257900;22;20004;-76
2021/01/08 00:15:23;;;;;;;6.53;2.38;;;;;;;17.08;48.67;101326.59;6235608;22;20000;-79
2021/01/08 00:17:48;;;;;;;4.22;2.25;;;;;;;17.06;48.65;101326.59;6299597;22;20004;-79
2021/01/08 00:22:39;;;;;;;6.38;2.30;;;;;;;17.08;48.64;101329.22;6300950;22;20027;-78
2021/01/08 00:25:05;;;;;;;3.50;1.80;;;;;;;17.06;48.61;101324.00;6275160;22;20003;-77
2021/01/08 00:27:30;;;;;;;4.60;2.35;;;;;;;17.05;48.51;101322.28;6247910;22;20007;-76
2021/01/08 00:29:55;;;;;;;3.80;2.05;;;;;;;17.06;48.58;101330.06;6265231;22;20021;-78
2021/01/08 00:32:21;;;;;;;6.43;2.50;;;;;;;17.04;48.44;101321.38;6283151;22;20004;-80
2021/01/08 00:34:49;;;;;;;5.18;2.15;;;;;;;17.05;48.62;101322.28;6260582;22;20014;-80
2021/01/08 00:37:14;;;;;;;5.03;2.00;;;;;;;17.05;48.52;101330.94;6287299;22;20030;-80
2021/01/08 00:39:41;;;;;;;4.05;2.10;;;;;;;17.04;48.27;101325.72;6289723;22;20008;-80
2021/01/08 00:42:07;;;;;;;4.75;2.05;;;;;;;17.04;48.38;101318.78;6260328;22;19995;-80
2021/01/08 00:44:33;;;;;;;4.18;1.92;;;;;;;17.05;48.54;101324.88;6284886;22;20008;-80
2021/01/08 00:46:58;;;;;;;5.28;2.20;;;;;;;17.04;48.61;101325.72;6229620;22;20020;-80
2021/01/08 00:49:23;;;;;;;5.75;1.85;;;;;;;17.05;48.56;101322.28;6258118;22;20004;-80
2021/01/08 00:51:49;;;;;;;3.53;2.00;;;;;;;17.04;48.32;101326.59;6287140;22;20004;-80
2021/01/08 00:54:14;;;;;;;4.57;2.10;;;;;;;17.03;48.54;101324.88;6204637;22;20007;-80
2021/01/08 00:56:40;;;;;;;4.72;2.03;;;;;;;17.02;48.36;101330.91;6252570;22;20050;-80
2021/01/08 00:59:05;;;;;;;4.63;1.65;;;;;;;17.03;48.57;101329.22;6251889;22;19999;-80
2021/01/08 01:01:32;;;;;;;3.90;1.88;;;;;;;17.02;48.32;101325.72;6281542;22;20011;-81
2021/01/08 01:03:57;;;;;;;5.13;1.85;;;;;;;17.02;48.42;101325.72;6254521;22;20606;-78
2021/01/08 01:06:24;;;;;;;6.18;1.90;;;;;;;17.02;48.22;101325.72;6250470;22;20085;-79
2021/01/08 01:08:50;;;;;;;3.92;1.92;;;;;;;17.02;48.21;101330.91;6219793;23;20130;-79
2021/01/08 01:11:16;;;;;;;3.42;1.80;;;;;;;17.01;48.38;101329.19;6247113;23;20012;-78
2021/01/08 01:13:42;;;;;;;3.97;1.80;;;;;;;17.02;48.39;101333.50;6246688;23;20492;-77
2021/01/08 01:16:07;;;;;;;3.47;1.90;;;;;;;17.01;48.25;101337.00;6246847;23;20004;-78
2021/01/08 01:18:33;;;;;;;2.97;1.60;;;;;;;17.01;48.46;101329.19;6246451;23;20043;-78
2021/01/08 01:20:58;;;;;;;3.17;1.70;;;;;;;17.02;48.28;101330.06;6245841;23;20043;-78
2021/01/08 01:23:23;;;;;;;3.67;1.58;;;;;;;17.00;48.30;101337.84;6194378;23;20012;-78
2021/01/08 01:25:49;;;;;;;3.10;1.40;;;;;;;17.00;48.08;101337.84;6219665;23;20334;-78
2021/01/08 01:28:14;;;;;;;3.63;1.70;;;;;;;17.00;48.23;101334.38;6247079;23;20036;-79
2021/01/08 01:30:40;;;;;;;4.18;1.77;;;;;;;16.99;48.45;101340.47;6254904;23;20533;-80
2021/01/08 01:33:05;;;;;;;2.92;1.80;;;;;;;16.98;48.46;101330.91;6232183;23;20008;-80
2021/01/08 01:35:31;;;;;;;3.13;1.80;;;;;;;16.99;48.00;101340.47;6208777;23;20039;-80
2021/01/08 01:37:56;;;;;;;3.17;1.80;;;;;;;16.99;48.29;101338.72;6262604;23;20015;-80
2021/01/08 01:40:22;;;;;;;3.70;1.50;;;;;;;16.98;48.17;101343.91;6266672;23;20018;-80
2021/01/08 01:42:48;;;;;;;3.03;1.40;;;;;;;16.97;48.18;101342.19;6269540;23;20031;-80
2021/01/08 01:45:13;;;;;;;2.45;1.27;;;;;;;16.98;48.30;101339.56;6243694;23;20009;-80
2021/01/08 01:47:40;;;;;;;3.00;1.30;;;;;;;16.98;48.25;101347.38;6228833;23;20387;-80
2021/01/08 01:50:06;;;;;;;2.88;1.50;;;;;;;16.96;48.40;101340.44;6264466;23;20004;-80
2021/01/08 01:52:32;;;;;;;2.72;1.63;;;;;;;16.94;48.33;101345.66;6272452;22;19991;-80
2021/01/08 01:54:58;;;;;;;2.50;1.38;;;;;;;16.95;48.17;101352.59;6249487;22;19996;-81
2021/01/08 01:57:23;;;;;;;3.50;1.20;;;;;;;16.97;48.09;101350.84;6249327;22;20014;-81
2021/01/08 01:59:49;;;;;;;2.42;1.13;;;;;;;16.96;48.18;101351.75;6224259;22;20008;-81
2021/01/08 02:02:29;;;;;;;3.15;1.40;;;;;;;16.95;48.04;101352.59;6249693;22;20011;-82
2021/01/08 02:04:57;;;;;;;2.72;1.30;;;;;;;16.95;47.92;101351.72;6249769;22;19988;-81
2021/01/08 02:07:24;;;;;;;2.42;1.27;;;;;;;16.96;48.01;101356.03;6275839;22;19996;-80
2021/01/08 02:09:51;;;;;;;2.47;1.25;;;;;;;16.94;48.13;101358.66;6224656;22;20018;-81
2021/01/08 02:12:17;;;;;;;2.72;1.40;;;;;;;16.94;47.96;101360.38;6276092;22;20004;-82
2021/01/08 02:14:45;;;;;;;2.72;1.38;;;;;;;16.95;47.87;101359.53;6249848;23;20015;-81
2021/01/08 02:17:13;;;;;;;2.45;1.20;;;;;;;16.93;48.17;101354.31;6249714;23;20056;-81
2021/01/08 02:19:49;;;;;;;1.90;1.10;;;;;;;16.95;48.32;101365.59;6273439;22;20031;-79
2021/01/08 02:22:45;;;;;;;2.55;1.25;;;;;;;16.95;48.13;101369.94;6216994;23;20016;-78
2021/01/08 02:25:18;;;;;;;2.35;1.27;;;;;;;16.94;48.07;101360.38;6243089;23;20008;-80
2021/01/08 02:28:08;;;;;;;2.40;1.30;;;;;;;16.95;47.97;101367.31;6221086;23;20466;-79
2021/01/08 02:30:35;;;;;;;1.98;1.20;;;;;;;16.93;48.14;101362.13;6221144;23;20072;-77
2021/01/08 02:33:03;;;;;;;2.90;1.05;;;;;;;16.94;47.84;101365.56;6221807;23;20004;-79
2021/01/08 02:35:32;;;;;;;2.65;1.40;;;;;;;16.94;47.99;101362.97;6218065;23;20003;-76
2021/01/08 02:37:58;;;;;;;1.90;1.10;;;;;;;16.94;48.12;101370.78;6218888;23;20490;-79
2021/01/08 02:40:25;;;;;;;1.77;1.20;;;;;;;16.93;48.16;101366.44;6215442;23;20348;-76
2021/01/08 02:42:58;;;;;;;1.90;1.00;;;;;;;16.92;48.04;101368.19;6191011;23;20000;-77
2021/01/08 02:45:24;;;;;;;2.00;1.20;;;;;;;16.94;47.90;101370.78;6217193;23;20012;-80
2021/01/08 02:47:49;;;;;;;2.33;1.27;;;;;;;16.93;48.03;101371.66;6242208;23;20428;-78
2021/01/08 02:50:14;;;;;;;2.20;1.10;;;;;;;16.93;47.99;101364.72;6217323;23;20008;-77
2021/01/08 02:52:43;;;;;;;1.90;0.93;;;;;;;16.93;48.00;101366.44;6216475;23;20005;-77
2021/01/08 02:55:12;;;;;;;1.80;1.00;;;;;;;16.93;47.99;101366.44;6215620;23;20105;-77
2021/01/08 02:57:41;;;;;;;1.42;0.93;;;;;;;16.92;47.96;101368.19;6216295;23;20001;-78
2021/01/08 03:00:08;;;;;;;1.70;0.93;;;;;;;16.92;48.07;101372.50;6219202;23;20019;-77
2021/01/08 03:02:34;;;;;;;2.17;1.10;;;;;;;16.91;47.97;101369.03;6220855;23;20036;-77
2021/01/08 03:05:00;;;;;;;1.85;1.20;;;;;;;16.91;48.16;101370.78;6218757;23;20020;-76
2021/01/08 03:07:26;;;;;;;2.28;1.25;;;;;;;16.91;48.30;101371.63;6193325;23;20028;-78
2021/01/08 03:09:51;;;;;;;1.85;1.08;;;;;;;16.91;48.08;101362.97;6218177;23;20000;-77
2021/01/08 03:12:18;;;;;;;1.30;0.85;;;;;;;16.90;47.97;101364.72;6216709;23;20056;-77
2021/01/08 03:14:44;;;;;;;1.70;0.90;;;;;;;16.91;48.05;101371.63;6216668;23;20063;-77
2021/01/08 03:17:11;;;;;;;1.98;1.00;;;;;;;16.89;47.98;101373.38;6217885;23;20437;-78
2021/01/08 03:19:36;;;;;;;2.38;0.85;;;;;;;16.90;47.90;101369.91;6215951;23;20016;-78
2021/01/08 03:22:02;;;;;;;1.30;0.90;;;;;;;16.90;47.86;101376.81;6215452;23;20008;-77
2021/01/08 03:24:27;;;;;;;1.80;0.93;;;;;;;16.89;48.10;101377.72;6215331;23;20083;-79
2021/01/08 03:26:53;;;;;;;1.70;0.80;;;;;;;16.88;47.90;101371.66;6190189;23;20016;-79
2021/01/08 03:29:18;;;;;;;2.25;1.10;;;;;;;16.88;47.91;101370.78;6190149;23;20004;-79
2021/01/08 03:31:43;;;;;;;2.45;0.98;;;;;;;16.88;47.84;101371.66;6191006;23;20054;-78
2021/01/08 03:34:09;;;;;;;1.83;0.98;;;;;;;16.88;47.91;101370.78;6214779;23;20013;-77
2021/01/08 03:36:34;;;;;;;2.60;0.90;;;;;;;16.87;47.97;101377.69;6215988;23;20008;-78
2021/01/08 03:38:59;;;;;;;2.20;0.95;;;;;;;16.87;47.93;101372.50;6217400;23;20015;-79
2021/01/08 03:41:25;;;;;;;1.80;0.95;;;;;;;16.86;48.04;101374.22;6190891;23;20019;-78
2021/01/08 03:43:50;;;;;;;1.65;1.00;;;;;;;16.86;47.80;101368.19;6216784;23;20005;-78
2021/01/08 03:46:15;;;;;;;1.55;0.90;;;;;;;16.86;47.80;101368.19;6216255;23;20443;-78
2021/01/08 03:48:42;;;;;;;1.63;0.80;;;;;;;16.86;47.94;101375.97;6190551;23;20092;-79
2021/01/08 03:51:07;;;;;;;1.48;0.82;;;;;;;16.87;47.79;101377.69;6217284;23;20011;-78
2021/01/08 03:53:33;;;;;;;2.03;0.98;;;;;;;16.86;47.68;101374.22;6216541;23;20013;-79
2021/01/08 03:55:58;;;;;;;2.17;1.00;;;;;;;16.86;47.80;101373.38;6218472;23;20059;-78
2021/01/08 03:58:23;;;;;;;1.42;0.80;;;;;;;16.85;47.88;101369.91;6191149;23;20020;-79
2021/01/08 04:00:48;;;;;;;1.67;0.93;;;;;;;16.85;47.74;101371.63;6218238;23;20004;-78
2021/01/08 04:03:14;;;;;;;1.35;0.90;;;;;;;16.84;47.78;101373.38;6216589;23;20012;-79
2021/01/08 04:05:39;;;;;;;1.63;1.00;;;;;;;16.83;47.80;101369.03;6192777;23;20005;-79
2021/01/08 04:08:05;;;;;;;1.58;1.00;;;;;;;16.84;47.93;101372.50;6193266;23;20009;-75
2021/01/08 04:10:30;;;;;;;1.13;0.93;;;;;;;16.84;47.88;101372.50;6215743;23;20015;-79
2021/01/08 04:12:55;;;;;;;1.27;0.65;;;;;;;16.84;47.95;101375.09;6215193;23;20012;-78
2021/01/08 04:15:21;;;;;;;5.05;0.95;;;;;;;16.84;47.99;101377.69;6216403;23;20016;-78
2021/01/08 04:17:46;;;;;;;2.47;0.80;;;;;;;16.83;47.87;101371.66;6190287;23;20012;-78
2021/01/08 04:20:12;;;;;;;1.60;0.93;;;;;;;16.84;48.05;101370.75;6216787;23;20396;-77
2021/01/08 04:22:37;;;;;;;1.52;0.80;;;;;;;16.85;48.10;101369.03;6241223;23;20048;-77
2021/01/08 04:25:03;;;;;;;1.50;0.85;;;;;;;16.85;48.25;101371.63;6220267;23;20008;-78
2021/01/08 04:27:29;;;;;;;1.83;0.80;;;;;;;16.85;48.12;101375.13;6246919;23;20099;-77
2021/01/08 04:29:54;;;;;;;1.35;0.82;;;;;;;16.86;48.19;101376.84;6220243;23;20040;-78
2021/01/08 04:32:19;;;;;;;1.30;0.73;;;;;;;16.86;48.04;101375.97;6195055;23;20004;-78
2021/01/08 04:34:45;;;;;;;1.33;0.90;;;;;;;16.86;48.16;101376.84;6219670;23;20004;-79
2021/01/08 04:37:10;;;;;;;1.30;0.77;;;;;;;16.86;47.97;101376.84;6220931;23;20019;-79
2021/01/08 04:39:35;;;;;;;1.13;0.80;;;;;;;16.86;48.16;101370.78;6219557;23;20684;-79
2021/01/08 04:42:01;;;;;;;1.63;0.90;;;;;;;16.87;48.25;101380.28;6195579;23;20051;-77
2021/01/08 04:44:27;;;;;;;1.67;0.80;;;;;;;16.86;48.21;101376.84;6246759;23;20004;-78
2021/01/08 04:46:52;;;;;;;1.23;0.70;;;;;;;16.88;48.11;101378.59;6220181;23;20004;-79
2021/01/08 04:49:18;;;;;;;1.15;0.70;;;;;;;16.88;48.06;101381.19;6247440;23;20058;-77
2021/01/08 04:51:45;;;;;;;1.02;0.50;;;;;;;16.88;48.24;101384.66;6196383;23;20454;-77
2021/01/08 04:54:11;;;;;;;1.15;0.70;;;;;;;16.88;48.24;101383.78;6253194;23;20004;-79
2021/01/08 04:56:40;;;;;;;1.13;0.70;;;;;;;16.88;48.31;101384.66;6254139;23;20007;-78
2021/01/08 04:59:06;;;;;;;1.63;0.65;;;;;;;16.88;48.40;101386.38;6262589;23;20000;-79
2021/01/08 05:01:31;;;;;;;0.60;0.50;;;;;;;16.86;48.43;101383.78;6266739;23;19988;-80
2021/01/08 05:03:56;;;;;;;1.45;0.63;;;;;;;16.86;48.07;101386.38;6233388;22;20020;-80
2021/01/08 05:06:22;;;;;;;1.10;0.70;;;;;;;16.86;48.19;101389.84;6241433;22;20008;-81
2021/01/08 05:08:49;;;;;;;1.23;0.50;;;;;;;16.87;48.29;101401.09;6268708;23;20040;-81
2021/01/08 05:11:33;;;;;;;0.90;0.50;;;;;;;16.87;48.50;101390.69;6244933;23;20055;-80
2021/01/08 05:14:01;;;;;;;0.73;0.52;;;;;;;16.88;48.41;101397.66;6271821;22;20000;-82
2021/01/08 05:16:28;;;;;;;0.90;0.60;;;;;;;16.89;48.09;101403.69;6266552;22;20004;-79
2021/01/08 05:18:56;;;;;;;0.85;0.60;;;;;;;16.88;48.40;101396.78;6221166;23;20098;-77
2021/01/08 05:21:26;;;;;;;0.60;0.50;;;;;;;16.89;48.32;101398.50;6221257;23;20005;-78
2021/01/08 05:23:53;;;;;;;1.13;0.60;;;;;;;16.89;48.51;101401.09;6222383;23;20024;-76
2021/01/08 05:26:19;;;;;;;1.00;0.70;;;;;;;16.89;48.39;101404.56;6220711;23;20485;-78
2021/01/08 05:28:47;;;;;;;0.77;0.50;;;;;;;16.89;48.43;101399.38;6245473;23;20001;-78
2021/01/08 05:31:15;;;;;;;1.15;0.70;;;;;;;16.89;48.56;101407.16;6244808;23;20031;-79
2021/01/08 05:33:41;;;;;;;1.00;0.52;;;;;;;16.90;48.63;101402.81;6246870;22;20032;-80
2021/01/08 05:36:07;;;;;;;1.38;0.73;;;;;;;16.89;48.49;101401.09;6246579;23;20054;-79
2021/01/08 05:38:33;;;;;;;0.75;0.40;;;;;;;16.90;48.42;101411.50;6220072;23;20008;-77
2021/01/08 05:41:02;;;;;;;1.00;0.63;;;;;;;16.90;48.30;101411.50;6249513;22;20076;-81
2021/01/08 05:43:29;;;;;;;0.95;0.60;;;;;;;16.90;48.26;101418.41;6269406;23;20011;-80
2021/01/08 05:46:06;;;;;;;1.17;0.50;;;;;;;16.89;48.30;101407.16;6258414;22;20075;-79
2021/01/08 05:48:33;;;;;;;1.08;0.60;;;;;;;16.92;48.56;101408.91;6246647;23;20001;-79
2021/01/08 05:50:58;;;;;;;1.15;0.68;;;;;;;16.92;48.50;101414.09;6248063;22;20062;-79
2021/01/08 05:53:25;;;;;;;1.63;0.70;;;;;;;16.93;48.52;101418.44;6247796;22;20428;-80
2021/01/08 05:55:51;;;;;;;2.38;0.63;;;;;;;16.92;48.51;101415.00;6246699;23;20016;-74
2021/01/08 05:58:23;;;;;;;0.95;0.50;;;;;;;16.93;48.69;101416.72;6248517;23;20004;-76
2021/01/08 06:00:59;;;;;;;2.03;0.60;;;;;;;16.94;48.58;101425.38;6248352;22;20019;-76
2021/01/08 06:03:25;;;;;;;0.73;0.47;;;;;;;16.93;48.47;101427.09;6246775;23;20332;-77
2021/01/08 06:05:55;;;;;;;1.13;0.60;;;;;;;16.94;48.54;101431.47;6222040;23;20398;-77
2021/01/08 06:08:24;;;;;;;1.27;0.60;;;;;;;16.94;48.62;101433.16;6253504;23;20382;-77
2021/01/08 06:10:53;;;;;;;3.38;0.90;;;;;;;16.98;48.82;101438.38;6270748;22;20008;-77
2021/01/08 06:13:22;;;;;;;14.68;2.63;;;;;;;17.05;48.54;101437.56;6268589;22;20011;-76
2021/01/08 06:15:50;;;;;;;17.80;3.20;;;;;;;17.13;48.39;101441.88;6255154;22;20004;-75
2021/01/08 06:20:41;;;;;;;10.52;3.03;;;;;;;17.21;48.28;101437.56;6298606;22;20024;-76
2021/01/08 06:23:06;;;;;;;9.52;2.83;;;;;;;17.24;48.33;101448.84;6248786;22;20364;-76
2021/01/08 06:25:33;;;;;;;16.05;3.40;;;;;;;17.24;48.20;101441.03;6198454;23;20008;-77
2021/01/08 06:28:03;;;;;;;11.60;3.13;;;;;;;17.26;48.35;101443.63;6258157;23;20386;-76
2021/01/08 06:30:33;;;;;;;7.65;2.88;;;;;;;17.27;48.22;101453.19;6235916;22;20080;-78
2021/01/08 06:33:04;;;;;;;7.47;2.50;;;;;;;17.30;48.38;101454.94;6263438;23;20435;-75
2021/01/08 06:35:32;;;;;;;6.95;2.40;;;;;;;17.30;48.15;101454.94;6236402;23;20038;-75
2021/01/08 06:38:11;;;;;;;7.82;2.97;;;;;;;17.30;48.22;101453.19;6188120;23;20014;-75
2021/01/08 06:40:41;;;;;;;7.80;2.50;;;;;;;17.30;48.23;101455.78;6266676;23;20023;-80
2021/01/08 06:43:17;;;;;;;7.10;2.50;;;;;;;17.32;48.38;101467.06;6243373;23;20050;-77
2021/01/08 06:45:52;;;;;;;6.10;2.10;;;;;;;17.30;48.39;101461.00;6243547;23;19992;-76
2021/01/08 06:48:24;;;;;;;5.63;2.42;;;;;;;17.32;48.06;101459.25;6236008;23;19996;-74
2021/01/08 06:50:52;;;;;;;5.85;1.95;;;;;;;17.33;48.19;101467.94;6238446;23;20015;-76
2021/01/08 06:53:23;;;;;;;4.28;1.88;;;;;;;17.34;48.36;101467.09;6263536;23;20004;-75
2021/01/08 06:55:53;;;;;;;5.10;2.20;;;;;;;17.34;48.01;101480.94;6238045;23;19988;-80
2021/01/08 06:58:19;;;;;;;5.82;2.17;;;;;;;17.35;48.00;101479.22;6265029;23;20500;-75
2021/01/08 07:00:50;;;;;;;4.30;1.85;;;;;;;17.35;48.03;101479.22;6210787;23;20012;-74
2021/01/08 07:03:22;;;;;;;8.60;1.98;;;;;;;17.35;48.53;101476.59;6260340;23;20016;-75
2021/01/08 07:05:48;;;;;;;4.72;1.90;;;;;;;17.34;48.25;101480.09;6211094;23;20012;-76
2021/01/08 07:08:16;;;;;;;5.95;2.00;;;;;;;17.35;48.14;101482.66;6209931;23;20039;-76
2021/01/08 07:10:41;;;;;;;3.15;1.70;;;;;;;17.35;48.25;101487.88;6228794;23;20000;-75
2021/01/08 07:13:07;;;;;;;4.13;1.70;;;;;;;17.36;48.28;101486.16;6197207;23;20015;-76
2021/01/08 07:15:33;;;;;;;4.20;1.70;;;;;;;17.37;48.09;101487.88;6221440;23;20009;-75
2021/01/08 07:17:59;;;;;;;3.67;1.58;;;;;;;17.36;48.05;101487.03;6226955;23;20462;-75
2021/01/08 07:20:25;;;;;;;4.45;1.73;;;;;;;17.37;48.14;101493.09;6221506;23;20012;-76
2021/01/08 07:22:54;;;;;;;4.68;1.75;;;;;;;17.38;48.40;101493.09;6197375;23;20086;-76
2021/01/08 07:25:23;;;;;;;4.78;1.40;;;;;;;17.39;48.29;101506.97;6247463;23;20008;-73
2021/01/08 07:27:50;;;;;;;4.10;1.60;;;;;;;17.38;48.25;101507.84;6222371;23;20079;-73
2021/01/08 07:30:15;;;;;;;2.47;1.25;;;;;;;17.37;48.18;101504.34;6220260;23;20414;-74
2021/01/08 07:32:43;;;;;;;5.05;1.23;;;;;;;17.39;48.27;101509.56;6220109;23;20040;-74
2021/01/08 07:35:32;;;;;;;3.33;1.30;;;;;;;17.39;48.23;101509.56;6219932;23;20000;-74
2021/01/08 07:38:06;;;;;;;2.90;1.50;;;;;;;17.40;48.17;101519.13;6219949;23;20008;-74
2021/01/08 07:40:33;;;;;;;3.88;1.50;;;;;;;17.40;48.24;101519.13;6247682;23;20012;-76
2021/01/08 07:43:09;;;;;;;3.55;1.65;;;;;;;17.39;48.04;101520.84;6248973;23;20020;-76
2021/01/08 07:45:54;;;;;;;3.00;1.30;;;;;;;17.41;48.31;101532.13;6222528;23;20032;-75
2021/01/08 07:48:24;;;;;;;2.83;1.33;;;;;;;17.41;48.13;101533.84;6248612;23;20058;-77
2021/01/08 07:50:54;;;;;;;3.33;1.27;;;;;;;17.41;48.32;101537.31;6224721;23;20099;-77
2021/01/08 07:53:40;;;;;;;3.80;1.30;;;;;;;17.44;48.08;101545.16;6222009;23;20032;-77
2021/01/08 07:56:06;;;;;;;2.25;1.25;;;;;;;17.45;48.18;101544.28;6249419;23;20023;-77
2021/01/08 07:58:33;;;;;;;3.60;1.50;;;;;;;17.46;48.35;101548.63;6249341;23;20005;-74
2021/01/08 08:00:59;;;;;;;3.13;1.40;;;;;;;17.47;47.97;101547.75;6196664;23;20008;-81
2021/01/08 08:03:24;;;;;;;2.97;1.40;;;;;;;17.48;48.08;101556.41;6249861;23;20015;-80
2021/01/08 08:05:51;;;;;;;3.90;1.20;;;;;;;17.47;48.26;101557.28;6249945;23;20024;-79
2021/01/08 08:08:18;;;;;;;1.80;0.93;;;;;;;17.47;48.13;101559.91;6248893;23;20010;-79
2021/01/08 08:10:43;;;;;;;2.72;1.02;;;;;;;17.47;48.14;101568.56;6222952;23;20066;-80
2021/01/08 08:13:12;;;;;;;2.55;0.90;;;;;;;17.47;47.96;101573.78;6197362;23;20008;-79
2021/01/08 08:15:47;;;;;;;3.33;1.17;;;;;;;17.47;47.94;101578.97;6222943;23;20364;-80
2021/01/08 08:18:13;;;;;;;1.45;1.08;;;;;;;17.49;48.07;101579.00;6221980;23;20019;-79
2021/01/08 08:20:39;;;;;;;2.65;1.40;;;;;;;17.50;47.93;101582.44;6248477;23;20011;-79
2021/01/08 08:23:15;;;;;;;2.20;0.82;;;;;;;17.50;48.07;101585.91;6221464;23;20008;-78
2021/01/08 08:25:41;;;;;;;2.75;0.95;;;;;;;17.51;47.72;101591.97;6221617;23;20015;-79
2021/01/08 08:28:06;;;;;;;2.05;1.10;;;;;;;17.54;47.94;101594.63;6221860;23;20015;-79
2021/01/08 08:30:33;;;;;;;2.38;1.10;;;;;;;17.53;47.88;101591.16;6248075;23;20394;-78
2021/01/08 08:32:58;;;;;;;2.78;1.30;;;;;;;17.53;47.85;101596.34;6249223;23;20056;-78
2021/01/08 08:35:24;;;;;;;1.90;0.98;;;;;;;17.56;48.00;101595.50;6221058;23;20008;-77
2021/01/08 08:37:54;;;;;;;1.80;0.98;;;;;;;17.54;47.88;101603.28;6197293;23;20036;-78
2021/01/08 08:40:25;;;;;;;2.85;1.02;;;;;;;17.55;47.80;101612.84;6248431;23;20023;-79
2021/01/08 08:42:57;;;;;;;1.58;0.90;;;;;;;17.56;47.68;101609.34;6223255;23;20000;-79
2021/01/08 08:45:25;;;;;;;3.58;1.02;;;;;;;17.58;47.88;101614.56;6246085;23;20083;-80
2021/01/08 08:47:52;;;;;;;1.35;0.80;;;;;;;17.59;47.74;101616.31;6254101;23;20000;-76
2021/01/08 08:50:18;;;;;;;2.00;1.20;;;;;;;17.60;47.58;101618.91;6261533;23;20004;-77
2021/01/08 08:52:45;;;;;;;2.08;1.00;;;;;;;17.63;47.52;101623.25;6264143;23;20004;-78
2021/01/08 08:55:27;;;;;;;1.55;0.70;;;;;;;17.63;47.75;101620.66;6263363;23;19996;-76
2021/01/08 08:58:03;;;;;;;1.60;0.95;;;;;;;17.65;47.55;101624.13;6234527;23;20004;-78
2021/01/08 09:00:29;;;;;;;2.63;1.00;;;;;;;17.64;47.59;101628.47;6232651;23;20431;-76
2021/01/08 09:02:54;;;;;;;1.80;0.80;;;;;;;17.63;47.58;101633.66;6230326;23;20003;-77
2021/01/08 09:05:20;;;;;;;1.65;0.88;;;;;;;17.64;47.83;101635.44;6249908;22;20016;-77
2021/01/08 09:07:55;;;;;;;1.73;0.90;;;;;;;17.66;47.45;101646.72;6233721;23;20016;-77
2021/01/08 09:10:46;;;;;;;1.38;0.80;;;;;;;17.66;47.34;101642.38;6259298;23;20352;-76
2021/01/08 09:13:15;;;;;;;1.50;0.93;;;;;;;17.66;47.48;101641.50;6265788;22;20023;-75
2021/01/08 09:16:08;;;;;;;2.13;0.95;;;;;;;17.66;47.36;101650.19;6262089;22;20004;-74
2021/01/08 09:18:39;;;;;;;1.13;0.70;;;;;;;17.66;47.40;101646.72;6264681;22;20004;-76
2021/01/08 09:21:12;;;;;;;2.15;0.75;;;;;;;17.66;47.58;101652.78;6265489;22;20027;-74
2021/01/08 09:23:42;;;;;;;1.48;0.88;;;;;;;17.67;47.36;101657.09;6285083;22;20003;-75
2021/01/08 09:26:08;;;;;;;1.50;0.90;;;;;;;17.67;47.38;101653.63;6286720;22;20723;-74
2021/01/08 09:28:47;;;;;;;1.13;0.65;;;;;;;17.66;47.37;101662.34;6205905;22;20018;-75
2021/01/08 09:31:13;;;;;;;1.70;0.88;;;;;;;17.64;47.35;101664.06;6285896;22;20435;-77
2021/01/08 09:33:39;;;;;;;1.40;0.77;;;;;;;17.63;47.36;101670.09;6234203;22;20010;-76
2021/01/08 09:36:07;;;;;;;1.13;0.70;;;;;;;17.61;47.73;101664.03;6260756;22;20073;-76
2021/01/08 09:38:34;;;;;;;1.60;0.90;;;;;;;17.60;47.48;101672.72;6285117;22;20064;-76
2021/01/08 09:41:01;;;;;;;1.00;0.52;;;;;;;17.59;47.51;101673.56;6286590;22;20010;-76
2021/01/08 09:43:27;;;;;;;1.50;0.75;;;;;;;17.58;47.49;101671.84;6260865;22;20035;-78
2021/01/08 09:46:07;;;;;;;1.88;0.80;;;;;;;17.55;47.53;101670.09;6288038;22;20030;-76
2021/01/08 09:48:34;;;;;;;1.23;0.70;;;;;;;17.55;47.29;101671.81;6239707;22;20028;-78
2021/01/08 09:51:06;;;;;;;0.80;0.60;;;;;;;17.55;47.83;101671.81;6295000;22;20004;-80
2021/01/08 09:53:34;;;;;;;1.80;0.70;;;;;;;17.54;47.61;101680.50;6287695;22;20142;-79
2021/01/08 09:56:10;;;;;;;1.92;0.70;;;;;;;17.54;47.75;101686.56;6254381;22;20381;-79
2021/01/08 09:58:36;;;;;;;0.93;0.70;;;;;;;17.53;47.65;101690.03;6254062;22;20003;-78
2021/01/08 10:01:01;;;;;;;1.55;0.70;;;;;;;17.53;47.50;101687.44;6280376;22;20012;-78
2021/01/08 10:03:26;;;;;;;3.25;0.80;;;;;;;17.53;47.70;101694.34;6251827;22;20098;-79
2021/01/08 10:06:01;;;;;;;0.98;0.70;;;;;;;17.53;47.66;101695.25;6255534;22;20082;-78
2021/01/08 10:08:26;;;;;;;1.45;0.65;;;;;;;17.53;47.50;101692.63;6255629;22;20049;-80
2021/01/08 10:10:52;;;;;;;1.30;0.80;;;;;;;17.53;47.53;101694.34;6255552;22;20455;-78
2021/01/08 10:13:20;;;;;;;1.20;0.50;;;;;;;17.53;47.51;101694.34;6227655;22;20045;-78
2021/01/08 10:15:48;;;;;;;0.90;0.50;;;;;;;17.53;47.48;101704.75;6280722;22;19999;-78
2021/01/08 10:18:17;;;;;;;1.30;0.75;;;;;;;17.52;47.69;101703.91;6252514;22;20008;-78
2021/01/08 10:20:51;;;;;;;1.30;0.70;;;;;;;17.53;47.64;101704.75;6279049;22;20106;-77
2021/01/08 10:23:19;;;;;;;2.30;0.70;;;;;;;17.52;47.64;101703.91;6278296;22;19999;-77
2021/01/08 10:25:45;;;;;;;0.90;0.60;;;;;;;17.52;47.53;101695.22;6251824;22;20034;-77
2021/01/08 10:28:16;;;;;;;1.67;0.60;;;;;;;17.52;47.53;101703.03;6251298;22;20008;-79
2021/01/08 10:30:45;;;;;;;1.30;0.63;;;;;;;17.53;47.45;101702.16;6280021;22;20071;-79
2021/01/08 10:33:10;;;;;;;0.98;0.68;;;;;;;17.52;47.38;101705.63;6279693;22;20074;-79
2021/01/08 10:35:36;;;;;;;2.38;0.80;;;;;;;17.51;47.40;101701.28;6252871;22;20011;-76
2021/01/08 10:38:02;;;;;;;1.23;0.70;;;;;;;17.52;47.55;101709.09;6253343;22;20007;-76
2021/01/08 10:40:28;;;;;;;0.95;0.45;;;;;;;17.51;47.52;101715.19;6280815;22;20334;-79
2021/01/08 10:42:54;;;;;;;2.75;0.65;;;;;;;17.52;47.36;101716.03;6251755;22;20012;-77
2021/01/08 10:45:19;;;;;;;1.20;0.60;;;;;;;17.51;47.42;101711.69;6251438;22;20019;-78
2021/01/08 10:47:45;;;;;;;1.00;0.65;;;;;;;17.52;47.35;101714.31;6279939;22;20007;-77
2021/01/08 10:50:12;;;;;;;0.68;0.60;;;;;;;17.52;47.43;101710.84;6251578;22;20007;-79
2021/01/08 10:52:37;;;;;;;1.23;0.70;;;;;;;17.53;47.36;101713.47;6296023;22;20003;-79
2021/01/08 10:55:04;;;;;;;1.20;0.63;;;;;;;17.54;47.59;101714.31;6241786;22;20014;-77
2021/01/08 10:57:30;;;;;;;1.15;0.60;;;;;;;17.53;47.57;101716.06;6273746;22;20042;-79
2021/01/08 10:59:55;;;;;;;1.13;0.55;;;;;;;17.55;47.44;101716.03;6272872;22;20011;-79
2021/01/08 11:02:20;;;;;;;1.70;0.80;;;;;;;17.55;47.41;101719.53;6275322;22;20003;-82
2021/01/08 11:04:46;;;;;;;1.15;0.60;;;;;;;17.54;47.54;101723.00;6277649;22;19992;-81
2021/01/08 11:07:11;;;;;;;1.55;0.70;;;;;;;17.56;47.45;101720.41;6250853;22;20008;-78
2021/01/08 11:09:37;;;;;;;2.10;0.50;;;;;;;17.57;47.24;101725.63;6303452;22;19984;-81
2021/01/08 11:12:03;;;;;;;1.15;0.60;;;;;;;17.58;47.26;101721.28;6275591;22;20011;-83
2021/01/08 11:14:28;;;;;;;0.88;0.60;;;;;;;17.57;47.35;101728.22;6276919;22;20008;-81
2021/01/08 11:16:54;;;;;;;1.33;0.50;;;;;;;17.56;47.16;101723.88;6302535;22;20043;-79
2021/01/08 11:19:19;;;;;;;0.82;0.57;;;;;;;17.55;47.29;101721.25;6300154;22;20004;-81
2021/01/08 11:21:46;;;;;;;1.02;0.70;;;;;;;17.54;47.12;101724.72;6274314;22;20090;-78
2021/01/08 11:24:11;;;;;;;0.88;0.57;;;;;;;17.53;47.30;101718.66;6272724;22;20010;-79
2021/01/08 11:26:37;;;;;;;0.82;0.60;;;;;;;17.52;47.12;101718.66;6268297;22;20007;-77
2021/01/08 11:29:02;;;;;;;1.08;0.68;;;;;;;17.51;47.32;101723.00;6246350;22;20008;-81
2021/01/08 11:31:35;;;;;;;0.98;0.50;;;;;;;17.51;47.36;101716.91;6246724;22;20016;-77